sensor_id;sensor_type;location;lat;lon;timestamp;temperature;humidity
31967;DHT22;18496;52.042;6.812;2022-07-22T00:01:58;20.30;99.90
31967;DHT22;18496;52.042;6.812;2022-07-22T00:04:02;20.30;99.90
31967;DHT22;18496;52.042;6.812;2022-07-22T00:06:05;20.30;99.90
31967;DHT22;18496;52.042;6.812;2022-07-22T00:08:09;20.30;99.90
31967;DHT22;18496;52.042;6.812;2022-07-22T00:10:13;20.20;99.90
31967;DHT22;18496;52.042;6.812;2022-07-22T00:12:17;20.20;99.90
31967;DHT22;18496;52.042;6.812;2022-07-22T00:14:20;20.20;99.90
31967;DHT22;18496;52.042;6.812;2022-07-22T00:16:24;20.20;99.90
31967;DHT22;18496;52.042;6.812;2022-07-22T00:18:28;20.30;99.90
31967;DHT22;18496;52.042;6.812;2022-07-22T00:20:33;20.30;99.90
31967;DHT22;18496;52.042;6.812;2022-07-22T00:22:36;20.30;99.90
31967;DHT22;18496;52.042;6.812;2022-07-22T00:24:40;20.30;99.90
31967;DHT22;18496;52.042;6.812;2022-07-22T00:26:43;20.30;99.90
31967;DHT22;18496;52.042;6.812;2022-07-22T00:28:47;20.30;99.90
31967;DHT22;18496;52.042;6.812;2022-07-22T00:30:51;20.40;99.90
31967;DHT22;18496;52.042;6.812;2022-07-22T00:32:55;20.30;99.90
31967;DHT22;18496;52.042;6.812;2022-07-22T00:34:58;20.30;99.90
31967;DHT22;18496;52.042;6.812;2022-07-22T00:37:02;20.20;99.90
31967;DHT22;18496;52.042;6.812;2022-07-22T00:39:07;20.20;99.90
31967;DHT22;18496;52.042;6.812;2022-07-22T00:41:10;20.20;99.90
31967;DHT22;18496;52.042;6.812;2022-07-22T00:43:14;20.10;99.90
31967;DHT22;18496;52.042;6.812;2022-07-22T00:45:18;20.20;99.90
31967;DHT22;18496;52.042;6.812;2022-07-22T00:47:23;20.20;99.90
31967;DHT22;18496;52.042;6.812;2022-07-22T00:49:26;20.20;99.90
31967;DHT22;18496;52.042;6.812;2022-07-22T00:51:30;20.20;99.90
31967;DHT22;18496;52.042;6.812;2022-07-22T00:53:35;20.20;99.90
31967;DHT22;18496;52.042;6.812;2022-07-22T00:55:39;20.20;99.90
31967;DHT22;18496;52.042;6.812;2022-07-22T00:57:43;20.20;99.90
31967;DHT22;18496;52.042;6.812;2022-07-22T00:59:47;20.20;99.90
31967;DHT22;18496;52.042;6.812;2022-07-22T01:01:50;20.20;99.90
31967;DHT22;18496;52.042;6.812;2022-07-22T01:03:54;20.20;99.90
31967;DHT22;18496;52.042;6.812;2022-07-22T01:05:58;20.20;99.90
31967;DHT22;18496;52.042;6.812;2022-07-22T01:08:05;20.20;99.90
31967;DHT22;18496;52.042;6.812;2022-07-22T01:10:09;20.20;99.90
31967;DHT22;18496;52.042;6.812;2022-07-22T01:12:14;20.20;99.90
31967;DHT22;18496;52.042;6.812;2022-07-22T01:14:18;20.10;99.90
31967;DHT22;18496;52.042;6.812;2022-07-22T01:16:23;20.10;99.90
31967;DHT22;18496;52.042;6.812;2022-07-22T01:18:27;20.10;99.90
31967;DHT22;18496;52.042;6.812;2022-07-22T01:20:31;20.10;99.90
31967;DHT22;18496;52.042;6.812;2022-07-22T01:22:35;20.10;99.90
31967;DHT22;18496;52.042;6.812;2022-07-22T01:24:38;20.10;99.90
31967;DHT22;18496;52.042;6.812;2022-07-22T01:26:42;20.20;99.90
31967;DHT22;18496;52.042;6.812;2022-07-22T01:28:47;20.20;99.90
31967;DHT22;18496;52.042;6.812;2022-07-22T01:30:51;20.20;99.90
31967;DHT22;18496;52.042;6.812;2022-07-22T01:32:54;20.20;99.90
31967;DHT22;18496;52.042;6.812;2022-07-22T01:34:58;20.20;99.90
31967;DHT22;18496;52.042;6.812;2022-07-22T01:37:02;20.20;99.90
31967;DHT22;18496;52.042;6.812;2022-07-22T01:39:06;20.20;99.90
31967;DHT22;18496;52.042;6.812;2022-07-22T01:41:10;20.20;99.90
31967;DHT22;18496;52.042;6.812;2022-07-22T01:43:15;20.20;99.90
31967;DHT22;18496;52.042;6.812;2022-07-22T01:45:22;20.20;99.90
31967;DHT22;18496;52.042;6.812;2022-07-22T01:47:26;20.20;99.90
31967;DHT22;18496;52.042;6.812;2022-07-22T01:49:29;20.20;99.90
31967;DHT22;18496;52.042;6.812;2022-07-22T01:51:33;20.20;99.90
31967;DHT22;18496;52.042;6.812;2022-07-22T01:53:37;20.20;99.90
31967;DHT22;18496;52.042;6.812;2022-07-22T01:55:42;20.20;99.90
31967;DHT22;18496;52.042;6.812;2022-07-22T01:57:46;20.20;99.90
31967;DHT22;18496;52.042;6.812;2022-07-22T01:59:55;20.20;99.90
31967;DHT22;18496;52.042;6.812;2022-07-22T02:02:00;20.20;99.90
31967;DHT22;18496;52.042;6.812;2022-07-22T02:04:03;20.20;99.90
31967;DHT22;18496;52.042;6.812;2022-07-22T02:06:07;20.10;99.90
31967;DHT22;18496;52.042;6.812;2022-07-22T02:08:11;20.10;99.90
31967;DHT22;18496;52.042;6.812;2022-07-22T02:10:43;20.10;99.90
31967;DHT22;18496;52.042;6.812;2022-07-22T02:12:47;20.10;99.90
31967;DHT22;18496;52.042;6.812;2022-07-22T02:14:51;20.00;99.90
31967;DHT22;18496;52.042;6.812;2022-07-22T02:16:55;20.10;99.90
31967;DHT22;18496;52.042;6.812;2022-07-22T02:18:59;20.10;99.90
31967;DHT22;18496;52.042;6.812;2022-07-22T02:21:05;20.00;99.90
31967;DHT22;18496;52.042;6.812;2022-07-22T02:23:09;20.10;99.90
31967;DHT22;18496;52.042;6.812;2022-07-22T02:25:15;20.10;99.90
31967;DHT22;18496;52.042;6.812;2022-07-22T02:27:19;20.10;99.90
31967;DHT22;18496;52.042;6.812;2022-07-22T02:29:23;20.10;99.90
31967;DHT22;18496;52.042;6.812;2022-07-22T02:31:26;20.10;99.90
31967;DHT22;18496;52.042;6.812;2022-07-22T02:33:30;20.10;99.90
31967;DHT22;18496;52.042;6.812;2022-07-22T02:36:01;20.10;99.90
31967;DHT22;18496;52.042;6.812;2022-07-22T02:38:10;20.10;99.90
31967;DHT22;18496;52.042;6.812;2022-07-22T02:40:15;20.10;99.90
31967;DHT22;18496;52.042;6.812;2022-07-22T02:42:20;20.00;99.90
31967;DHT22;18496;52.042;6.812;2022-07-22T02:44:27;20.00;99.90
31967;DHT22;18496;52.042;6.812;2022-07-22T02:46:31;20.00;99.90
31967;DHT22;18496;52.042;6.812;2022-07-22T02:48:46;20.00;99.90
31967;DHT22;18496;52.042;6.812;2022-07-22T02:50:52;20.00;99.90
31967;DHT22;18496;52.042;6.812;2022-07-22T02:53:03;20.00;99.90
31967;DHT22;18496;52.042;6.812;2022-07-22T02:55:12;20.00;99.90
31967;DHT22;18496;52.042;6.812;2022-07-22T02:57:16;20.00;99.90
31967;DHT22;18496;52.042;6.812;2022-07-22T02:59:20;20.00;99.90
31967;DHT22;18496;52.042;6.812;2022-07-22T03:01:24;20.10;99.90
31967;DHT22;18496;52.042;6.812;2022-07-22T03:03:37;20.10;99.90
31967;DHT22;18496;52.042;6.812;2022-07-22T03:05:41;20.10;99.90
31967;DHT22;18496;52.042;6.812;2022-07-22T03:08:10;20.10;99.90
31967;DHT22;18496;52.042;6.812;2022-07-22T03:10:15;20.10;99.90
31967;DHT22;18496;52.042;6.812;2022-07-22T03:12:19;20.10;99.90
31967;DHT22;18496;52.042;6.812;2022-07-22T03:14:22;20.10;99.90
31967;DHT22;18496;52.042;6.812;2022-07-22T03:16:26;20.10;99.90
31967;DHT22;18496;52.042;6.812;2022-07-22T03:18:30;20.10;99.90
31967;DHT22;18496;52.042;6.812;2022-07-22T03:20:33;20.10;99.90
31967;DHT22;18496;52.042;6.812;2022-07-22T03:22:37;20.10;99.90
31967;DHT22;18496;52.042;6.812;2022-07-22T03:24:42;20.10;99.90
31967;DHT22;18496;52.042;6.812;2022-07-22T03:26:46;20.10;99.90
31967;DHT22;18496;52.042;6.812;2022-07-22T03:28:50;20.10;99.90
31967;DHT22;18496;52.042;6.812;2022-07-22T03:30:56;20.10;99.90
31967;DHT22;18496;52.042;6.812;2022-07-22T03:33:00;20.10;99.90
31967;DHT22;18496;52.042;6.812;2022-07-22T03:35:07;20.10;99.90
31967;DHT22;18496;52.042;6.812;2022-07-22T03:37:16;20.10;99.90
31967;DHT22;18496;52.042;6.812;2022-07-22T03:39:21;20.10;99.90
31967;DHT22;18496;52.042;6.812;2022-07-22T03:41:25;20.00;99.90
31967;DHT22;18496;52.042;6.812;2022-07-22T03:43:30;20.00;99.90
31967;DHT22;18496;52.042;6.812;2022-07-22T03:45:33;20.00;99.90
31967;DHT22;18496;52.042;6.812;2022-07-22T03:47:37;20.00;99.90
31967;DHT22;18496;52.042;6.812;2022-07-22T03:49:42;19.90;99.90
31967;DHT22;18496;52.042;6.812;2022-07-22T03:51:49;19.90;99.90
31967;DHT22;18496;52.042;6.812;2022-07-22T03:53:52;19.90;99.90
31967;DHT22;18496;52.042;6.812;2022-07-22T03:55:56;19.90;99.90
31967;DHT22;18496;52.042;6.812;2022-07-22T03:58:00;19.80;99.90
31967;DHT22;18496;52.042;6.812;2022-07-22T04:00:07;19.80;99.90
31967;DHT22;18496;52.042;6.812;2022-07-22T04:02:17;19.80;99.90
31967;DHT22;18496;52.042;6.812;2022-07-22T04:04:22;19.80;99.90
31967;DHT22;18496;52.042;6.812;2022-07-22T04:06:26;19.80;99.90
31967;DHT22;18496;52.042;6.812;2022-07-22T04:08:46;19.80;99.90
31967;DHT22;18496;52.042;6.812;2022-07-22T04:10:51;19.80;99.90
31967;DHT22;18496;52.042;6.812;2022-07-22T04:12:54;19.80;99.90
31967;DHT22;18496;52.042;6.812;2022-07-22T04:15:06;19.80;99.90
31967;DHT22;18496;52.042;6.812;2022-07-22T04:17:10;19.80;99.90
31967;DHT22;18496;52.042;6.812;2022-07-22T04:19:15;19.80;99.90
31967;DHT22;18496;52.042;6.812;2022-07-22T04:21:39;19.80;99.90
31967;DHT22;18496;52.042;6.812;2022-07-22T04:23:46;19.80;99.90
31967;DHT22;18496;52.042;6.812;2022-07-22T04:25:54;19.80;99.90
31967;DHT22;18496;52.042;6.812;2022-07-22T04:27:58;19.80;99.90
31967;DHT22;18496;52.042;6.812;2022-07-22T04:30:03;19.80;99.90
31967;DHT22;18496;52.042;6.812;2022-07-22T04:32:08;19.80;99.90
31967;DHT22;18496;52.042;6.812;2022-07-22T04:34:12;19.80;99.90
31967;DHT22;18496;52.042;6.812;2022-07-22T04:36:16;19.80;99.90
31967;DHT22;18496;52.042;6.812;2022-07-22T04:38:20;19.80;99.90
31967;DHT22;18496;52.042;6.812;2022-07-22T04:40:44;19.80;99.90
31967;DHT22;18496;52.042;6.812;2022-07-22T04:42:47;19.90;99.90
31967;DHT22;18496;52.042;6.812;2022-07-22T04:44:51;19.90;99.90
31967;DHT22;18496;52.042;6.812;2022-07-22T04:46:58;19.90;99.90
31967;DHT22;18496;52.042;6.812;2022-07-22T04:49:01;19.90;99.90
31967;DHT22;18496;52.042;6.812;2022-07-22T04:51:08;19.90;99.90
31967;DHT22;18496;52.042;6.812;2022-07-22T04:53:14;19.90;99.90
31967;DHT22;18496;52.042;6.812;2022-07-22T04:55:18;19.90;99.90
31967;DHT22;18496;52.042;6.812;2022-07-22T04:57:21;19.90;99.90
31967;DHT22;18496;52.042;6.812;2022-07-22T04:59:32;19.90;99.90
31967;DHT22;18496;52.042;6.812;2022-07-22T05:01:39;19.90;99.90
31967;DHT22;18496;52.042;6.812;2022-07-22T05:03:44;19.80;99.90
31967;DHT22;18496;52.042;6.812;2022-07-22T05:05:52;19.80;99.90
31967;DHT22;18496;52.042;6.812;2022-07-22T05:08:03;19.80;99.90
31967;DHT22;18496;52.042;6.812;2022-07-22T05:10:08;19.80;99.90
31967;DHT22;18496;52.042;6.812;2022-07-22T05:12:12;19.80;99.90
31967;DHT22;18496;52.042;6.812;2022-07-22T05:14:16;19.80;99.90
31967;DHT22;18496;52.042;6.812;2022-07-22T05:16:28;19.80;99.90
31967;DHT22;18496;52.042;6.812;2022-07-22T05:18:33;19.90;99.90
31967;DHT22;18496;52.042;6.812;2022-07-22T05:20:38;19.90;99.90
31967;DHT22;18496;52.042;6.812;2022-07-22T05:22:42;20.00;99.90
31967;DHT22;18496;52.042;6.812;2022-07-22T05:24:51;20.00;99.90
31967;DHT22;18496;52.042;6.812;2022-07-22T05:26:55;20.00;99.90
31967;DHT22;18496;52.042;6.812;2022-07-22T05:29:00;20.00;99.90
31967;DHT22;18496;52.042;6.812;2022-07-22T05:31:05;20.00;99.90
31967;DHT22;18496;52.042;6.812;2022-07-22T05:33:11;20.00;99.90
31967;DHT22;18496;52.042;6.812;2022-07-22T05:35:33;20.00;99.90
31967;DHT22;18496;52.042;6.812;2022-07-22T05:37:36;20.00;99.90
31967;DHT22;18496;52.042;6.812;2022-07-22T05:39:40;20.10;99.90
31967;DHT22;18496;52.042;6.812;2022-07-22T05:41:44;20.10;99.90
31967;DHT22;18496;52.042;6.812;2022-07-22T05:43:48;20.20;99.90
31967;DHT22;18496;52.042;6.812;2022-07-22T05:45:52;20.20;99.90
31967;DHT22;18496;52.042;6.812;2022-07-22T05:47:57;20.30;99.90
31967;DHT22;18496;52.042;6.812;2022-07-22T05:50:01;20.30;99.90
31967;DHT22;18496;52.042;6.812;2022-07-22T05:52:06;20.30;99.90
31967;DHT22;18496;52.042;6.812;2022-07-22T05:54:09;20.30;99.90
31967;DHT22;18496;52.042;6.812;2022-07-22T05:56:14;20.30;99.90
31967;DHT22;18496;52.042;6.812;2022-07-22T05:58:17;20.30;99.90
31967;DHT22;18496;52.042;6.812;2022-07-22T06:00:22;20.30;99.90
31967;DHT22;18496;52.042;6.812;2022-07-22T06:02:25;20.30;99.90
31967;DHT22;18496;52.042;6.812;2022-07-22T06:04:29;20.30;99.90
31967;DHT22;18496;52.042;6.812;2022-07-22T06:06:33;20.30;99.90
31967;DHT22;18496;52.042;6.812;2022-07-22T06:08:37;20.30;99.90
31967;DHT22;18496;52.042;6.812;2022-07-22T06:10:44;20.30;99.90
31967;DHT22;18496;52.042;6.812;2022-07-22T06:12:48;20.30;99.90
31967;DHT22;18496;52.042;6.812;2022-07-22T06:14:51;20.30;99.90
31967;DHT22;18496;52.042;6.812;2022-07-22T06:16:57;20.30;99.90
31967;DHT22;18496;52.042;6.812;2022-07-22T06:19:03;20.30;99.90
31967;DHT22;18496;52.042;6.812;2022-07-22T06:21:08;20.30;99.90
31967;DHT22;18496;52.042;6.812;2022-07-22T06:23:12;20.30;99.90
31967;DHT22;18496;52.042;6.812;2022-07-22T06:25:16;20.30;99.90
31967;DHT22;18496;52.042;6.812;2022-07-22T06:27:20;20.30;99.90
31967;DHT22;18496;52.042;6.812;2022-07-22T06:29:26;20.30;99.90
31967;DHT22;18496;52.042;6.812;2022-07-22T06:31:30;20.30;99.90
31967;DHT22;18496;52.042;6.812;2022-07-22T06:33:33;20.40;99.90
31967;DHT22;18496;52.042;6.812;2022-07-22T06:35:39;20.30;99.90
31967;DHT22;18496;52.042;6.812;2022-07-22T06:37:43;20.30;99.90
31967;DHT22;18496;52.042;6.812;2022-07-22T06:39:48;20.30;99.90
31967;DHT22;18496;52.042;6.812;2022-07-22T06:42:02;20.30;99.90
31967;DHT22;18496;52.042;6.812;2022-07-22T06:44:27;20.30;99.90
31967;DHT22;18496;52.042;6.812;2022-07-22T06:47:00;20.20;99.90
31967;DHT22;18496;52.042;6.812;2022-07-22T06:49:04;20.20;99.90
31967;DHT22;18496;52.042;6.812;2022-07-22T06:51:11;20.20;99.90
31967;DHT22;18496;52.042;6.812;2022-07-22T06:53:15;20.20;99.90
31967;DHT22;18496;52.042;6.812;2022-07-22T06:55:20;20.30;99.90
31967;DHT22;18496;52.042;6.812;2022-07-22T06:57:37;20.40;99.90
31967;DHT22;18496;52.042;6.812;2022-07-22T06:59:41;20.40;99.90
31967;DHT22;18496;52.042;6.812;2022-07-22T07:01:47;20.40;99.90
31967;DHT22;18496;52.042;6.812;2022-07-22T07:03:52;20.40;99.90
31967;DHT22;18496;52.042;6.812;2022-07-22T07:05:55;20.40;99.90
31967;DHT22;18496;52.042;6.812;2022-07-22T07:07:59;20.50;99.60
31967;DHT22;18496;52.042;6.812;2022-07-22T07:10:03;20.50;99.90
31967;DHT22;18496;52.042;6.812;2022-07-22T07:12:31;20.50;99.30
31967;DHT22;18496;52.042;6.812;2022-07-22T07:14:44;20.50;99.40
31967;DHT22;18496;52.042;6.812;2022-07-22T07:16:48;20.50;99.40
31967;DHT22;18496;52.042;6.812;2022-07-22T07:18:51;20.50;99.40
31967;DHT22;18496;52.042;6.812;2022-07-22T07:20:55;20.60;98.90
31967;DHT22;18496;52.042;6.812;2022-07-22T07:23:03;20.50;98.30
31967;DHT22;18496;52.042;6.812;2022-07-22T07:25:09;20.50;98.70
31967;DHT22;18496;52.042;6.812;2022-07-22T07:27:13;20.50;98.30
31967;DHT22;18496;52.042;6.812;2022-07-22T07:29:18;20.50;98.60
31967;DHT22;18496;52.042;6.812;2022-07-22T07:31:21;20.50;98.60
31967;DHT22;18496;52.042;6.812;2022-07-22T07:33:28;20.60;98.50
31967;DHT22;18496;52.042;6.812;2022-07-22T07:35:32;20.50;98.00
31967;DHT22;18496;52.042;6.812;2022-07-22T07:37:36;20.50;98.10
31967;DHT22;18496;52.042;6.812;2022-07-22T07:39:40;20.60;98.20
31967;DHT22;18496;52.042;6.812;2022-07-22T07:41:45;20.60;98.10
31967;DHT22;18496;52.042;6.812;2022-07-22T07:43:53;20.60;97.60
31967;DHT22;18496;52.042;6.812;2022-07-22T07:45:57;20.60;97.30
31967;DHT22;18496;52.042;6.812;2022-07-22T07:48:02;20.60;97.40
31967;DHT22;18496;52.042;6.812;2022-07-22T07:50:07;20.60;97.10
31967;DHT22;18496;52.042;6.812;2022-07-22T07:52:11;20.60;97.30
31967;DHT22;18496;52.042;6.812;2022-07-22T07:54:16;20.60;97.10
31967;DHT22;18496;52.042;6.812;2022-07-22T07:56:20;20.60;97.60
31967;DHT22;18496;52.042;6.812;2022-07-22T07:58:23;20.70;97.80
31967;DHT22;18496;52.042;6.812;2022-07-22T08:00:27;20.70;97.40
31967;DHT22;18496;52.042;6.812;2022-07-22T08:02:32;20.70;97.10
31967;DHT22;18496;52.042;6.812;2022-07-22T08:04:36;20.70;97.10
31967;DHT22;18496;52.042;6.812;2022-07-22T08:06:42;20.80;97.10
31967;DHT22;18496;52.042;6.812;2022-07-22T08:08:46;20.80;97.10
31967;DHT22;18496;52.042;6.812;2022-07-22T08:10:55;20.90;96.70
31967;DHT22;18496;52.042;6.812;2022-07-22T08:13:18;20.90;96.80
31967;DHT22;18496;52.042;6.812;2022-07-22T08:15:43;20.80;96.40
31967;DHT22;18496;52.042;6.812;2022-07-22T08:17:55;20.80;96.50
31967;DHT22;18496;52.042;6.812;2022-07-22T08:20:00;20.80;96.60
31967;DHT22;18496;52.042;6.812;2022-07-22T08:22:03;20.90;96.30
31967;DHT22;18496;52.042;6.812;2022-07-22T08:24:10;20.90;95.70
31967;DHT22;18496;52.042;6.812;2022-07-22T08:26:14;20.90;96.30
31967;DHT22;18496;52.042;6.812;2022-07-22T08:28:17;20.90;96.20
31967;DHT22;18496;52.042;6.812;2022-07-22T08:30:21;20.90;96.20
31967;DHT22;18496;52.042;6.812;2022-07-22T08:32:27;20.90;96.20
31967;DHT22;18496;52.042;6.812;2022-07-22T08:34:32;20.90;96.00
31967;DHT22;18496;52.042;6.812;2022-07-22T08:36:35;20.90;96.00
31967;DHT22;18496;52.042;6.812;2022-07-22T08:38:39;20.80;95.80
31967;DHT22;18496;52.042;6.812;2022-07-22T08:40:43;20.80;96.00
31967;DHT22;18496;52.042;6.812;2022-07-22T08:42:49;20.90;95.80
31967;DHT22;18496;52.042;6.812;2022-07-22T08:44:54;20.80;96.00
31967;DHT22;18496;52.042;6.812;2022-07-22T08:47:00;20.80;96.20
31967;DHT22;18496;52.042;6.812;2022-07-22T08:49:42;20.80;96.80
31967;DHT22;18496;52.042;6.812;2022-07-22T08:51:58;20.80;96.80
31967;DHT22;18496;52.042;6.812;2022-07-22T08:54:04;20.80;96.50
31967;DHT22;18496;52.042;6.812;2022-07-22T08:56:08;20.80;96.50
31967;DHT22;18496;52.042;6.812;2022-07-22T08:58:12;20.80;96.60
31967;DHT22;18496;52.042;6.812;2022-07-22T09:00:22;20.80;96.40
31967;DHT22;18496;52.042;6.812;2022-07-22T09:02:39;20.80;96.60
31967;DHT22;18496;52.042;6.812;2022-07-22T09:05:05;20.70;97.10
31967;DHT22;18496;52.042;6.812;2022-07-22T09:07:23;20.80;97.30
31967;DHT22;18496;52.042;6.812;2022-07-22T09:09:34;20.80;97.30
31967;DHT22;18496;52.042;6.812;2022-07-22T09:12:07;20.90;97.40
31967;DHT22;18496;52.042;6.812;2022-07-22T09:14:46;20.90;97.60
31967;DHT22;18496;52.042;6.812;2022-07-22T09:19:59;20.80;97.50
31967;DHT22;18496;52.042;6.812;2022-07-22T09:22:08;20.80;97.80
31967;DHT22;18496;52.042;6.812;2022-07-22T09:24:40;20.80;98.20
31967;DHT22;18496;52.042;6.812;2022-07-22T09:27:00;20.90;97.70
31967;DHT22;18496;52.042;6.812;2022-07-22T09:29:07;20.80;97.90
31967;DHT22;18496;52.042;6.812;2022-07-22T09:31:24;20.80;97.50
31967;DHT22;18496;52.042;6.812;2022-07-22T09:33:31;20.80;97.40
31967;DHT22;18496;52.042;6.812;2022-07-22T09:36:02;20.70;97.70
31967;DHT22;18496;52.042;6.812;2022-07-22T09:38:09;20.70;97.80
31967;DHT22;18496;52.042;6.812;2022-07-22T09:40:17;20.70;97.90
31967;DHT22;18496;52.042;6.812;2022-07-22T09:42:21;20.70;98.30
31967;DHT22;18496;52.042;6.812;2022-07-22T09:44:25;20.70;98.40
31967;DHT22;18496;52.042;6.812;2022-07-22T09:46:35;20.70;98.30
31967;DHT22;18496;52.042;6.812;2022-07-22T09:49:05;20.80;98.30
31967;DHT22;18496;52.042;6.812;2022-07-22T09:51:38;20.70;98.30
31967;DHT22;18496;52.042;6.812;2022-07-22T09:53:53;20.70;98.20
31967;DHT22;18496;52.042;6.812;2022-07-22T09:56:13;20.60;97.90
31967;DHT22;18496;52.042;6.812;2022-07-22T09:58:18;20.60;98.10
31967;DHT22;18496;52.042;6.812;2022-07-22T10:00:25;20.60;98.40
31967;DHT22;18496;52.042;6.812;2022-07-22T10:02:42;20.70;98.50
31967;DHT22;18496;52.042;6.812;2022-07-22T10:04:48;20.80;98.90
31967;DHT22;18496;52.042;6.812;2022-07-22T10:06:54;20.80;98.30
31967;DHT22;18496;52.042;6.812;2022-07-22T10:09:03;21.00;98.20
31967;DHT22;18496;52.042;6.812;2022-07-22T10:11:08;21.00;97.70
31967;DHT22;18496;52.042;6.812;2022-07-22T10:13:22;21.10;97.80
31967;DHT22;18496;52.042;6.812;2022-07-22T10:15:28;21.10;97.50
31967;DHT22;18496;52.042;6.812;2022-07-22T10:17:33;21.20;97.80
31967;DHT22;18496;52.042;6.812;2022-07-22T10:19:37;21.30;97.80
31967;DHT22;18496;52.042;6.812;2022-07-22T10:21:41;21.40;97.10
31967;DHT22;18496;52.042;6.812;2022-07-22T10:24:15;21.40;97.00
31967;DHT22;18496;52.042;6.812;2022-07-22T10:26:54;21.50;96.90
31967;DHT22;18496;52.042;6.812;2022-07-22T10:31:41;21.60;96.70
31967;DHT22;18496;52.042;6.812;2022-07-22T10:33:50;21.70;96.30
31967;DHT22;18496;52.042;6.812;2022-07-22T10:35:59;21.80;96.40
31967;DHT22;18496;52.042;6.812;2022-07-22T10:38:07;21.80;96.40
31967;DHT22;18496;52.042;6.812;2022-07-22T10:40:15;21.90;96.50
31967;DHT22;18496;52.042;6.812;2022-07-22T10:42:19;22.00;96.40
31967;DHT22;18496;52.042;6.812;2022-07-22T10:44:46;22.10;96.40
31967;DHT22;18496;52.042;6.812;2022-07-22T10:46:54;22.10;95.40
31967;DHT22;18496;52.042;6.812;2022-07-22T10:48:58;22.10;95.80
31967;DHT22;18496;52.042;6.812;2022-07-22T10:55:20;22.20;95.70
31967;DHT22;18496;52.042;6.812;2022-07-22T10:57:31;22.20;95.70
31967;DHT22;18496;52.042;6.812;2022-07-22T10:59:35;22.20;95.40
31967;DHT22;18496;52.042;6.812;2022-07-22T11:01:42;22.20;95.70
31967;DHT22;18496;52.042;6.812;2022-07-22T11:03:47;22.20;96.00
31967;DHT22;18496;52.042;6.812;2022-07-22T11:05:51;22.20;95.60
31967;DHT22;18496;52.042;6.812;2022-07-22T11:07:55;22.20;94.90
31967;DHT22;18496;52.042;6.812;2022-07-22T11:10:12;22.20;94.40
31967;DHT22;18496;52.042;6.812;2022-07-22T11:12:16;22.20;93.80
31967;DHT22;18496;52.042;6.812;2022-07-22T11:14:26;22.10;93.70
31967;DHT22;18496;52.042;6.812;2022-07-22T11:16:30;22.20;94.50
31967;DHT22;18496;52.042;6.812;2022-07-22T11:19:00;22.20;94.10
31967;DHT22;18496;52.042;6.812;2022-07-22T11:21:04;22.40;94.50
31967;DHT22;18496;52.042;6.812;2022-07-22T11:23:07;22.50;94.30
31967;DHT22;18496;52.042;6.812;2022-07-22T11:25:11;22.50;93.30
31967;DHT22;18496;52.042;6.812;2022-07-22T11:27:17;22.60;93.60
31967;DHT22;18496;52.042;6.812;2022-07-22T11:31:35;22.70;92.80
31967;DHT22;18496;52.042;6.812;2022-07-22T11:33:39;22.80;92.80
31967;DHT22;18496;52.042;6.812;2022-07-22T11:36:03;22.90;93.00
31967;DHT22;18496;52.042;6.812;2022-07-22T11:38:07;22.90;92.20
31967;DHT22;18496;52.042;6.812;2022-07-22T11:40:15;22.90;91.80
31967;DHT22;18496;52.042;6.812;2022-07-22T11:42:18;23.00;92.30
31967;DHT22;18496;52.042;6.812;2022-07-22T11:44:25;23.00;92.10
31967;DHT22;18496;52.042;6.812;2022-07-22T11:46:41;23.10;92.40
31967;DHT22;18496;52.042;6.812;2022-07-22T11:48:45;23.20;92.70
31967;DHT22;18496;52.042;6.812;2022-07-22T11:50:49;23.30;91.30
31967;DHT22;18496;52.042;6.812;2022-07-22T11:53:02;23.20;91.30
31967;DHT22;18496;52.042;6.812;2022-07-22T11:55:15;23.20;91.10
31967;DHT22;18496;52.042;6.812;2022-07-22T11:57:18;23.30;91.20
31967;DHT22;18496;52.042;6.812;2022-07-22T11:59:22;23.30;91.30
31967;DHT22;18496;52.042;6.812;2022-07-22T12:01:27;23.30;91.30
31967;DHT22;18496;52.042;6.812;2022-07-22T12:03:33;23.40;91.20
31967;DHT22;18496;52.042;6.812;2022-07-22T12:05:38;23.40;90.90
31967;DHT22;18496;52.042;6.812;2022-07-22T12:07:42;23.40;90.80
31967;DHT22;18496;52.042;6.812;2022-07-22T12:09:45;23.40;90.60
31967;DHT22;18496;52.042;6.812;2022-07-22T12:11:51;23.40;91.10
31967;DHT22;18496;52.042;6.812;2022-07-22T12:13:56;23.30;90.10
31967;DHT22;18496;52.042;6.812;2022-07-22T12:16:25;23.30;90.50
31967;DHT22;18496;52.042;6.812;2022-07-22T12:18:30;23.20;90.90
31967;DHT22;18496;52.042;6.812;2022-07-22T12:20:45;23.20;90.50
31967;DHT22;18496;52.042;6.812;2022-07-22T12:22:52;23.20;90.70
31967;DHT22;18496;52.042;6.812;2022-07-22T12:25:01;23.20;90.30
31967;DHT22;18496;52.042;6.812;2022-07-22T12:29:20;23.30;89.90
31967;DHT22;18496;52.042;6.812;2022-07-22T12:31:24;23.30;90.00
31967;DHT22;18496;52.042;6.812;2022-07-22T12:33:27;23.30;90.20
31967;DHT22;18496;52.042;6.812;2022-07-22T12:35:31;23.30;90.50
31967;DHT22;18496;52.042;6.812;2022-07-22T12:37:45;23.40;90.40
31967;DHT22;18496;52.042;6.812;2022-07-22T12:42:17;23.50;89.30
31967;DHT22;18496;52.042;6.812;2022-07-22T12:44:23;23.70;88.60
31967;DHT22;18496;52.042;6.812;2022-07-22T12:46:27;23.70;87.70
31967;DHT22;18496;52.042;6.812;2022-07-22T12:48:30;23.70;88.70
31967;DHT22;18496;52.042;6.812;2022-07-22T12:50:54;23.70;87.00
31967;DHT22;18496;52.042;6.812;2022-07-22T12:53:11;23.70;85.90
31967;DHT22;18496;52.042;6.812;2022-07-22T12:55:18;23.70;86.90
31967;DHT22;18496;52.042;6.812;2022-07-22T12:57:21;23.70;87.00
31967;DHT22;18496;52.042;6.812;2022-07-22T12:59:25;23.70;86.90
31967;DHT22;18496;52.042;6.812;2022-07-22T13:01:28;23.70;87.40
31967;DHT22;18496;52.042;6.812;2022-07-22T13:03:35;23.70;87.40
31967;DHT22;18496;52.042;6.812;2022-07-22T13:05:39;23.70;86.30
31967;DHT22;18496;52.042;6.812;2022-07-22T13:07:45;23.60;86.60
31967;DHT22;18496;52.042;6.812;2022-07-22T13:09:49;23.60;87.30
31967;DHT22;18496;52.042;6.812;2022-07-22T13:11:52;23.60;87.20
31967;DHT22;18496;52.042;6.812;2022-07-22T13:13:56;23.50;86.90
31967;DHT22;18496;52.042;6.812;2022-07-22T13:16:00;23.50;86.50
31967;DHT22;18496;52.042;6.812;2022-07-22T13:18:03;23.50;86.80
31967;DHT22;18496;52.042;6.812;2022-07-22T13:20:09;23.60;87.50
31967;DHT22;18496;52.042;6.812;2022-07-22T13:22:13;23.70;87.60
31967;DHT22;18496;52.042;6.812;2022-07-22T13:24:16;23.80;85.70
31967;DHT22;18496;52.042;6.812;2022-07-22T13:26:20;23.70;86.10
31967;DHT22;18496;52.042;6.812;2022-07-22T13:28:24;23.70;86.30
31967;DHT22;18496;52.042;6.812;2022-07-22T13:30:28;23.80;86.90
31967;DHT22;18496;52.042;6.812;2022-07-22T13:32:32;24.00;86.80
31967;DHT22;18496;52.042;6.812;2022-07-22T13:34:36;24.10;84.30
31967;DHT22;18496;52.042;6.812;2022-07-22T13:36:40;24.20;84.70
31967;DHT22;18496;52.042;6.812;2022-07-22T13:38:43;24.20;84.70
31967;DHT22;18496;52.042;6.812;2022-07-22T13:40:47;24.30;83.40